Sublime, Texas
Current Conditions -  °F | °C
As of 3:35 PM on Thursday 27 Nov 2014 (Local Time) from K66R Reporting Station
Clear Clear  
Wind Chill: 19°   Ceiling: Unl
Heat Index: 19°   Visibility: 10mi
Dew Point: -1°   Wind: 5mph
Humidity: 27%   Direction: 80°E
Pressure: 30.41"   Gusts: NA
Location:  29.48°N, 96.8°W
Report Text: K66R 272135Z AUTO 08004KT 10SM CLR 19/M01 A3041 RMK AO2 T01861007
Loading
Personal Weather Stations






























Interactive Weather Map New forecast layout! Learn more

10-Day Weather Forecast

Advertisements
Track Severe Weather on mobile